sensor_id;sensor_type;location;lat;lon;timestamp;pressure;altitude;pressure_sealevel;temperature;humidity
35778;BME280;21899;42.662;23.316;2023-04-08T00:00:40;94472.78;;;5.78;72.54
35778;BME280;21899;42.662;23.316;2023-04-08T00:03:06;94476.59;;;5.77;72.78
35778;BME280;21899;42.662;23.316;2023-04-08T00:05:32;94474.22;;;5.72;72.77
35778;BME280;21899;42.662;23.316;2023-04-08T00:07:57;94469.56;;;5.69;72.91
35778;BME280;21899;42.662;23.316;2023-04-08T00:10:23;94482.47;;;5.67;73.49
35778;BME280;21899;42.662;23.316;2023-04-08T00:12:50;94479.31;;;5.61;73.80
35778;BME280;21899;42.662;23.316;2023-04-08T00:15:16;94463.44;;;5.46;73.40
35778;BME280;21899;42.662;23.316;2023-04-08T00:17:41;94486.69;;;5.52;73.60
35778;BME280;21899;42.662;23.316;2023-04-08T00:20:07;94468.34;;;5.44;72.77
35778;BME280;21899;42.662;23.316;2023-04-08T00:22:34;94470.56;;;5.42;72.68
35778;BME280;21899;42.662;23.316;2023-04-08T00:24:59;94461.91;;;5.45;72.67
35778;BME280;21899;42.662;23.316;2023-04-08T00:27:26;94471.97;;;5.55;72.26
35778;BME280;21899;42.662;23.316;2023-04-08T00:29:51;94459.25;;;5.45;72.50
35778;BME280;21899;42.662;23.316;2023-04-08T00:32:17;94467.66;;;5.47;72.31
35778;BME280;21899;42.662;23.316;2023-04-08T00:34:42;94472.59;;;5.48;73.10
35778;BME280;21899;42.662;23.316;2023-04-08T00:37:08;94477.56;;;5.50;73.43
35778;BME280;21899;42.662;23.316;2023-04-08T00:39:33;94468.00;;;5.45;73.44
35778;BME280;21899;42.662;23.316;2023-04-08T00:41:59;94472.41;;;5.57;73.73
35778;BME280;21899;42.662;23.316;2023-04-08T00:44:26;94464.63;;;5.48;74.57
35778;BME280;21899;42.662;23.316;2023-04-08T00:46:51;94476.72;;;5.65;75.04
35778;BME280;21899;42.662;23.316;2023-04-08T00:49:17;94483.13;;;5.64;75.32
35778;BME280;21899;42.662;23.316;2023-04-08T00:51:43;94476.38;;;5.66;75.24
35778;BME280;21899;42.662;23.316;2023-04-08T00:54:08;94474.06;;;5.65;76.25
35778;BME280;21899;42.662;23.316;2023-04-08T00:56:34;94482.75;;;5.62;76.17
35778;BME280;21899;42.662;23.316;2023-04-08T00:59:00;94482.94;;;5.53;75.76
35778;BME280;21899;42.662;23.316;2023-04-08T01:04:43;94493.22;;;5.55;75.85
35778;BME280;21899;42.662;23.316;2023-04-08T01:07:17;94485.81;;;5.45;76.58
35778;BME280;21899;42.662;23.316;2023-04-08T01:09:47;94491.09;;;5.45;76.70
35778;BME280;21899;42.662;23.316;2023-04-08T01:12:25;94494.75;;;5.37;77.07
35778;BME280;21899;42.662;23.316;2023-04-08T01:17:21;94483.69;;;5.34;77.61
35778;BME280;21899;42.662;23.316;2023-04-08T01:19:48;94492.34;;;5.31;78.43
35778;BME280;21899;42.662;23.316;2023-04-08T01:22:33;94492.97;;;5.25;79.49
35778;BME280;21899;42.662;23.316;2023-04-08T01:25:17;94480.69;;;5.17;79.20
35778;BME280;21899;42.662;23.316;2023-04-08T01:27:44;94492.19;;;5.24;79.23
35778;BME280;21899;42.662;23.316;2023-04-08T01:30:11;94491.28;;;5.17;78.64
35778;BME280;21899;42.662;23.316;2023-04-08T01:32:38;94484.16;;;5.21;78.72
35778;BME280;21899;42.662;23.316;2023-04-08T01:35:05;94483.00;;;5.18;77.21
35778;BME280;21899;42.662;23.316;2023-04-08T01:37:32;94479.06;;;5.12;76.68
35778;BME280;21899;42.662;23.316;2023-04-08T01:39:59;94480.75;;;5.20;76.21
35778;BME280;21899;42.662;23.316;2023-04-08T01:42:27;94483.25;;;5.13;75.51
35778;BME280;21899;42.662;23.316;2023-04-08T01:44:55;94488.28;;;5.18;75.60
35778;BME280;21899;42.662;23.316;2023-04-08T01:47:22;94489.53;;;5.24;74.71
35778;BME280;21899;42.662;23.316;2023-04-08T01:49:51;94484.94;;;5.21;75.20
35778;BME280;21899;42.662;23.316;2023-04-08T01:52:19;94492.19;;;5.24;74.78
35778;BME280;21899;42.662;23.316;2023-04-08T01:54:45;94491.44;;;5.24;75.19
35778;BME280;21899;42.662;23.316;2023-04-08T01:57:16;94487.44;;;5.14;74.98
35778;BME280;21899;42.662;23.316;2023-04-08T01:59:47;94490.78;;;5.11;75.19
35778;BME280;21899;42.662;23.316;2023-04-08T02:02:16;94481.94;;;5.04;75.24
35778;BME280;21899;42.662;23.316;2023-04-08T02:04:45;94485.06;;;5.09;75.40
35778;BME280;21899;42.662;23.316;2023-04-08T02:07:11;94498.06;;;5.14;75.10
35778;BME280;21899;42.662;23.316;2023-04-08T02:09:36;94510.22;;;5.15;75.65
35778;BME280;21899;42.662;23.316;2023-04-08T02:12:02;94513.53;;;5.12;76.15
35778;BME280;21899;42.662;23.316;2023-04-08T02:14:28;94505.44;;;5.05;75.65
35778;BME280;21899;42.662;23.316;2023-04-08T02:17:08;94512.28;;;5.06;76.29
35778;BME280;21899;42.662;23.316;2023-04-08T02:19:45;94510.25;;;5.00;76.25
35778;BME280;21899;42.662;23.316;2023-04-08T02:22:26;94512.09;;;5.15;75.85
35778;BME280;21899;42.662;23.316;2023-04-08T02:24:54;94512.38;;;5.10;76.42
35778;BME280;21899;42.662;23.316;2023-04-08T02:27:22;94506.88;;;5.18;75.58
35778;BME280;21899;42.662;23.316;2023-04-08T02:29:49;94503.44;;;5.18;75.48
35778;BME280;21899;42.662;23.316;2023-04-08T02:32:17;94518.03;;;5.27;75.58
35778;BME280;21899;42.662;23.316;2023-04-08T02:34:43;94513.44;;;5.24;74.73
35778;BME280;21899;42.662;23.316;2023-04-08T02:37:08;94516.50;;;5.26;74.87
35778;BME280;21899;42.662;23.316;2023-04-08T02:39:34;94510.94;;;5.31;74.81
35778;BME280;21899;42.662;23.316;2023-04-08T02:42:00;94515.97;;;5.37;74.24
35778;BME280;21899;42.662;23.316;2023-04-08T02:44:25;94511.00;;;5.35;74.45
35778;BME280;21899;42.662;23.316;2023-04-08T02:46:51;94510.31;;;5.38;74.42
35778;BME280;21899;42.662;23.316;2023-04-08T02:49:16;94503.81;;;5.35;73.70
35778;BME280;21899;42.662;23.316;2023-04-08T02:51:42;94511.84;;;5.39;74.25
35778;BME280;21899;42.662;23.316;2023-04-08T02:54:07;94509.00;;;5.48;74.65
35778;BME280;21899;42.662;23.316;2023-04-08T02:56:32;94505.78;;;5.39;74.75
35778;BME280;21899;42.662;23.316;2023-04-08T02:58:58;94503.88;;;5.39;76.09
35778;BME280;21899;42.662;23.316;2023-04-08T03:01:23;94509.19;;;5.39;75.08
35778;BME280;21899;42.662;23.316;2023-04-08T03:03:49;94513.88;;;5.46;75.65
35778;BME280;21899;42.662;23.316;2023-04-08T03:06:14;94521.72;;;5.58;75.32
35778;BME280;21899;42.662;23.316;2023-04-08T03:08:41;94520.31;;;5.64;74.98
35778;BME280;21899;42.662;23.316;2023-04-08T03:11:06;94513.53;;;5.66;73.96
35778;BME280;21899;42.662;23.316;2023-04-08T03:13:31;94518.72;;;5.59;73.79
35778;BME280;21899;42.662;23.316;2023-04-08T03:15:58;94500.81;;;5.37;74.20
35778;BME280;21899;42.662;23.316;2023-04-08T03:18:24;94502.28;;;5.34;75.44
35778;BME280;21899;42.662;23.316;2023-04-08T03:20:50;94502.53;;;5.29;75.44
35778;BME280;21899;42.662;23.316;2023-04-08T03:23:15;94502.97;;;5.31;74.76
35778;BME280;21899;42.662;23.316;2023-04-08T03:25:40;94509.69;;;5.25;74.69
35778;BME280;21899;42.662;23.316;2023-04-08T03:28:06;94515.94;;;5.17;75.35
35778;BME280;21899;42.662;23.316;2023-04-08T03:30:31;94511.84;;;5.04;75.81
35778;BME280;21899;42.662;23.316;2023-04-08T03:32:57;94510.50;;;5.10;75.91
35778;BME280;21899;42.662;23.316;2023-04-08T03:35:22;94506.34;;;5.13;75.80
35778;BME280;21899;42.662;23.316;2023-04-08T03:37:48;94516.94;;;5.28;75.54
35778;BME280;21899;42.662;23.316;2023-04-08T03:40:13;94513.59;;;5.31;75.28
35778;BME280;21899;42.662;23.316;2023-04-08T03:42:39;94507.28;;;5.20;75.88
35778;BME280;21899;42.662;23.316;2023-04-08T03:45:05;94515.38;;;5.08;76.06
35778;BME280;21899;42.662;23.316;2023-04-08T03:47:30;94498.28;;;4.90;77.79
35778;BME280;21899;42.662;23.316;2023-04-08T03:49:56;94510.06;;;4.93;77.61
35778;BME280;21899;42.662;23.316;2023-04-08T03:52:21;94521.13;;;4.95;78.68
35778;BME280;21899;42.662;23.316;2023-04-08T03:54:47;94517.41;;;4.99;78.75
35778;BME280;21899;42.662;23.316;2023-04-08T03:57:12;94504.59;;;5.01;78.89
35778;BME280;21899;42.662;23.316;2023-04-08T03:59:37;94508.78;;;5.02;79.10
35778;BME280;21899;42.662;23.316;2023-04-08T04:02:05;94504.06;;;5.11;78.17
35778;BME280;21899;42.662;23.316;2023-04-08T04:04:30;94511.06;;;5.19;77.76
35778;BME280;21899;42.662;23.316;2023-04-08T04:06:56;94502.53;;;5.10;77.62
35778;BME280;21899;42.662;23.316;2023-04-08T04:09:21;94513.28;;;5.17;77.79
35778;BME280;21899;42.662;23.316;2023-04-08T04:11:47;94498.06;;;5.14;76.96
35778;BME280;21899;42.662;23.316;2023-04-08T04:14:12;94502.75;;;5.21;77.04
35778;BME280;21899;42.662;23.316;2023-04-08T04:16:37;94511.22;;;5.26;76.81
35778;BME280;21899;42.662;23.316;2023-04-08T04:19:03;94513.44;;;5.24;76.68
35778;BME280;21899;42.662;23.316;2023-04-08T04:21:28;94513.94;;;5.30;76.71
35778;BME280;21899;42.662;23.316;2023-04-08T04:23:54;94526.94;;;5.35;76.51
35778;BME280;21899;42.662;23.316;2023-04-08T04:26:19;94525.66;;;5.29;75.95
35778;BME280;21899;42.662;23.316;2023-04-08T04:28:45;94521.13;;;5.29;76.08
35778;BME280;21899;42.662;23.316;2023-04-08T04:31:20;94514.06;;;5.18;74.77
35778;BME280;21899;42.662;23.316;2023-04-08T04:33:46;94524.41;;;5.07;75.27
35778;BME280;21899;42.662;23.316;2023-04-08T04:36:12;94531.19;;;5.05;75.18
35778;BME280;21899;42.662;23.316;2023-04-08T04:38:38;94516.31;;;5.00;74.84
35778;BME280;21899;42.662;23.316;2023-04-08T04:41:03;94518.66;;;4.86;75.24
35778;BME280;21899;42.662;23.316;2023-04-08T04:43:29;94521.72;;;4.88;75.63
35778;BME280;21899;42.662;23.316;2023-04-08T04:45:54;94527.28;;;4.83;76.95
35778;BME280;21899;42.662;23.316;2023-04-08T04:48:21;94522.59;;;4.77;77.63
35778;BME280;21899;42.662;23.316;2023-04-08T04:50:57;94526.69;;;4.90;77.04
35778;BME280;21899;42.662;23.316;2023-04-08T04:53:23;94521.72;;;4.88;76.34
35778;BME280;21899;42.662;23.316;2023-04-08T04:55:51;94532.81;;;5.09;76.34
35778;BME280;21899;42.662;23.316;2023-04-08T04:58:17;94534.56;;;5.21;75.79
35778;BME280;21899;42.662;23.316;2023-04-08T05:00:43;94542.59;;;5.40;75.04
35778;BME280;21899;42.662;23.316;2023-04-08T05:03:09;94528.53;;;5.40;73.99
35778;BME280;21899;42.662;23.316;2023-04-08T05:05:34;94541.69;;;5.52;73.42
35778;BME280;21899;42.662;23.316;2023-04-08T05:08:00;94535.41;;;5.60;73.26
35778;BME280;21899;42.662;23.316;2023-04-08T05:10:25;94533.25;;;5.65;72.49
35778;BME280;21899;42.662;23.316;2023-04-08T05:12:51;94527.03;;;5.77;72.30
35778;BME280;21899;42.662;23.316;2023-04-08T05:15:16;94528.09;;;5.91;71.56
35778;BME280;21899;42.662;23.316;2023-04-08T05:17:41;94540.13;;;6.04;72.00
35778;BME280;21899;42.662;23.316;2023-04-08T05:20:07;94526.34;;;5.99;71.07
35778;BME280;21899;42.662;23.316;2023-04-08T05:22:33;94529.50;;;6.04;71.01
35778;BME280;21899;42.662;23.316;2023-04-08T05:24:58;94530.50;;;6.19;70.30
35778;BME280;21899;42.662;23.316;2023-04-08T05:27:24;94530.94;;;6.43;69.15
35778;BME280;21899;42.662;23.316;2023-04-08T05:29:49;94532.53;;;6.48;68.44
35778;BME280;21899;42.662;23.316;2023-04-08T05:32:15;94538.69;;;6.52;68.12
35778;BME280;21899;42.662;23.316;2023-04-08T05:34:43;94535.88;;;6.64;67.91
35778;BME280;21899;42.662;23.316;2023-04-08T05:37:09;94537.09;;;6.70;67.35
35778;BME280;21899;42.662;23.316;2023-04-08T05:39:35;94534.50;;;6.74;67.70
35778;BME280;21899;42.662;23.316;2023-04-08T05:42:00;94538.88;;;6.85;67.59
35778;BME280;21899;42.662;23.316;2023-04-08T05:44:26;94531.81;;;6.96;66.60
35778;BME280;21899;42.662;23.316;2023-04-08T05:46:51;94537.66;;;7.05;67.19
35778;BME280;21899;42.662;23.316;2023-04-08T05:49:17;94540.63;;;7.26;65.14
35778;BME280;21899;42.662;23.316;2023-04-08T05:51:43;94537.03;;;7.41;65.58
35778;BME280;21899;42.662;23.316;2023-04-08T05:54:08;94519.28;;;7.52;64.43
35778;BME280;21899;42.662;23.316;2023-04-08T05:56:34;94528.84;;;7.53;63.52
35778;BME280;21899;42.662;23.316;2023-04-08T05:59:00;94528.16;;;7.30;64.95
35778;BME280;21899;42.662;23.316;2023-04-08T06:01:25;94529.94;;;7.23;65.59
35778;BME280;21899;42.662;23.316;2023-04-08T06:03:51;94531.13;;;7.25;65.21
35778;BME280;21899;42.662;23.316;2023-04-08T06:06:23;94522.59;;;7.42;65.10
35778;BME280;21899;42.662;23.316;2023-04-08T06:08:49;94526.97;;;7.57;64.70
35778;BME280;21899;42.662;23.316;2023-04-08T06:11:15;94523.16;;;7.55;64.34
35778;BME280;21899;42.662;23.316;2023-04-08T06:13:41;94525.28;;;7.75;63.35
35778;BME280;21899;42.662;23.316;2023-04-08T06:16:13;94526.16;;;7.83;62.70
35778;BME280;21899;42.662;23.316;2023-04-08T06:18:39;94527.09;;;7.97;61.28
35778;BME280;21899;42.662;23.316;2023-04-08T06:21:05;94527.09;;;7.97;61.66
35778;BME280;21899;42.662;23.316;2023-04-08T06:23:31;94532.81;;;8.29;61.28
35778;BME280;21899;42.662;23.316;2023-04-08T06:25:56;94530.72;;;8.49;60.45
35778;BME280;21899;42.662;23.316;2023-04-08T06:28:23;94530.81;;;8.59;59.55
35778;BME280;21899;42.662;23.316;2023-04-08T06:30:48;94519.97;;;8.82;57.59
35778;BME280;21899;42.662;23.316;2023-04-08T06:33:14;94533.22;;;8.75;57.06
35778;BME280;21899;42.662;23.316;2023-04-08T06:35:40;94517.34;;;8.89;56.70
35778;BME280;21899;42.662;23.316;2023-04-08T06:38:05;94519.84;;;9.18;56.04
35778;BME280;21899;42.662;23.316;2023-04-08T06:40:30;94532.16;;;9.34;55.50
35778;BME280;21899;42.662;23.316;2023-04-08T06:42:56;94536.59;;;9.12;56.60
35778;BME280;21899;42.662;23.316;2023-04-08T06:45:21;94527.34;;;8.99;56.76
35778;BME280;21899;42.662;23.316;2023-04-08T06:47:47;94531.16;;;9.01;57.46
35778;BME280;21899;42.662;23.316;2023-04-08T06:50:12;94536.53;;;9.05;57.58
35778;BME280;21899;42.662;23.316;2023-04-08T06:52:38;94542.81;;;8.83;58.16
35778;BME280;21899;42.662;23.316;2023-04-08T06:55:03;94533.22;;;8.75;59.04
35778;BME280;21899;42.662;23.316;2023-04-08T06:57:29;94526.31;;;8.67;59.60
35778;BME280;21899;42.662;23.316;2023-04-08T06:59:55;94539.03;;;8.84;59.20
35778;BME280;21899;42.662;23.316;2023-04-08T07:02:20;94544.75;;;8.82;59.74
35778;BME280;21899;42.662;23.316;2023-04-08T07:04:47;94525.72;;;8.91;59.15
35778;BME280;21899;42.662;23.316;2023-04-08T07:07:12;94543.38;;;8.99;59.62
35778;BME280;21899;42.662;23.316;2023-04-08T07:09:37;94538.09;;;9.09;59.29
35778;BME280;21899;42.662;23.316;2023-04-08T07:12:04;94528.97;;;9.14;58.74
35778;BME280;21899;42.662;23.316;2023-04-08T07:14:29;94537.16;;;9.39;58.85
35778;BME280;21899;42.662;23.316;2023-04-08T07:16:55;94533.00;;;9.48;57.71
35778;BME280;21899;42.662;23.316;2023-04-08T07:19:21;94543.31;;;9.46;57.96
35778;BME280;21899;42.662;23.316;2023-04-08T07:21:48;94546.41;;;9.55;57.51
35778;BME280;21899;42.662;23.316;2023-04-08T07:24:13;94550.97;;;9.51;57.88
35778;BME280;21899;42.662;23.316;2023-04-08T07:26:40;94549.41;;;9.47;58.22
35778;BME280;21899;42.662;23.316;2023-04-08T07:29:05;94539.75;;;9.28;58.71
35778;BME280;21899;42.662;23.316;2023-04-08T07:31:30;94554.38;;;9.48;58.68
35778;BME280;21899;42.662;23.316;2023-04-08T07:33:56;94550.63;;;9.56;57.89
35778;BME280;21899;42.662;23.316;2023-04-08T07:36:21;94553.75;;;9.72;57.88
35778;BME280;21899;42.662;23.316;2023-04-08T07:38:47;94554.53;;;9.76;57.50
35778;BME280;21899;42.662;23.316;2023-04-08T07:41:12;94543.75;;;9.62;57.46
35778;BME280;21899;42.662;23.316;2023-04-08T07:43:37;94552.31;;;9.92;57.02
35778;BME280;21899;42.662;23.316;2023-04-08T07:46:04;94564.22;;;10.05;56.71
35778;BME280;21899;42.662;23.316;2023-04-08T07:48:30;94560.53;;;10.27;55.98
35778;BME280;21899;42.662;23.316;2023-04-08T07:50:56;94560.25;;;10.71;54.92
35778;BME280;21899;42.662;23.316;2023-04-08T07:53:21;94570.97;;;10.99;53.37
35778;BME280;21899;42.662;23.316;2023-04-08T07:55:48;94569.81;;;10.83;53.68
35778;BME280;21899;42.662;23.316;2023-04-08T07:58:13;94576.25;;;10.46;54.32
35778;BME280;21899;42.662;23.316;2023-04-08T08:00:39;94571.22;;;10.27;55.34
35778;BME280;21899;42.662;23.316;2023-04-08T08:03:05;94576.19;;;10.29;55.30
35778;BME280;21899;42.662;23.316;2023-04-08T08:05:30;94579.97;;;10.17;55.76
35778;BME280;21899;42.662;23.316;2023-04-08T08:07:56;94577.72;;;10.33;55.17
35778;BME280;21899;42.662;23.316;2023-04-08T08:10:21;94587.41;;;10.63;55.09
35778;BME280;21899;42.662;23.316;2023-04-08T08:12:46;94590.09;;;10.84;54.62
35778;BME280;21899;42.662;23.316;2023-04-08T08:15:12;94577.81;;;10.65;55.51
35778;BME280;21899;42.662;23.316;2023-04-08T08:17:37;94582.09;;;10.87;54.91
35778;BME280;21899;42.662;23.316;2023-04-08T08:20:03;94583.25;;;10.97;53.86
35778;BME280;21899;42.662;23.316;2023-04-08T08:22:29;94588.91;;;10.60;54.40
35778;BME280;21899;42.662;23.316;2023-04-08T08:24:58;94583.88;;;10.44;54.97
35778;BME280;21899;42.662;23.316;2023-04-08T08:27:24;94570.16;;;10.57;54.99
35778;BME280;21899;42.662;23.316;2023-04-08T08:29:50;94577.47;;;10.74;53.70
35778;BME280;21899;42.662;23.316;2023-04-08T08:32:17;94585.94;;;11.04;52.24
35778;BME280;21899;42.662;23.316;2023-04-08T08:34:42;94590.13;;;11.26;51.95
35778;BME280;21899;42.662;23.316;2023-04-08T08:37:08;94585.94;;;11.25;51.58
35778;BME280;21899;42.662;23.316;2023-04-08T08:39:33;94587.06;;;11.38;51.41
35778;BME280;21899;42.662;23.316;2023-04-08T08:41:59;94582.84;;;11.51;52.15
35778;BME280;21899;42.662;23.316;2023-04-08T08:44:24;94590.50;;;11.80;52.01
35778;BME280;21899;42.662;23.316;2023-04-08T08:46:51;94586.66;;;11.60;51.85
35778;BME280;21899;42.662;23.316;2023-04-08T08:49:17;94583.22;;;10.93;53.92
35778;BME280;21899;42.662;23.316;2023-04-08T08:51:44;94583.94;;;10.73;55.45
35778;BME280;21899;42.662;23.316;2023-04-08T08:54:10;94578.56;;;10.59;56.10
35778;BME280;21899;42.662;23.316;2023-04-08T08:56:35;94588.81;;;10.32;57.61
35778;BME280;21899;42.662;23.316;2023-04-08T08:59:01;94584.59;;;10.24;58.59
35778;BME280;21899;42.662;23.316;2023-04-08T09:01:31;94585.78;;;10.40;56.62
35778;BME280;21899;42.662;23.316;2023-04-08T09:06:38;94590.84;;;10.70;55.70
35778;BME280;21899;42.662;23.316;2023-04-08T09:09:04;94587.03;;;10.68;56.42
35778;BME280;21899;42.662;23.316;2023-04-08T09:11:45;94592.78;;;10.84;56.71
35778;BME280;21899;42.662;23.316;2023-04-08T09:14:22;94600.84;;;11.05;57.18
35778;BME280;21899;42.662;23.316;2023-04-08T09:16:47;94591.66;;;11.16;57.27
35778;BME280;21899;42.662;23.316;2023-04-08T09:19:13;94590.50;;;11.52;56.66
35778;BME280;21899;42.662;23.316;2023-04-08T09:21:39;94588.97;;;11.79;54.36
35778;BME280;21899;42.662;23.316;2023-04-08T09:24:09;94571.69;;;11.98;53.39
35778;BME280;21899;42.662;23.316;2023-04-08T09:26:35;94569.25;;;12.35;51.69
35778;BME280;21899;42.662;23.316;2023-04-08T09:29:05;94580.53;;;11.81;52.17
35778;BME280;21899;42.662;23.316;2023-04-08T09:31:33;94581.66;;;11.80;52.13
35778;BME280;21899;42.662;23.316;2023-04-08T09:34:09;94563.66;;;11.84;52.17
35778;BME280;21899;42.662;23.316;2023-04-08T09:36:34;94580.47;;;12.02;50.17
35778;BME280;21899;42.662;23.316;2023-04-08T09:39:00;94570.88;;;12.08;49.52
35778;BME280;21899;42.662;23.316;2023-04-08T09:41:27;94564.97;;;12.41;49.00
35778;BME280;21899;42.662;23.316;2023-04-08T09:43:54;94560.66;;;12.65;49.22
35778;BME280;21899;42.662;23.316;2023-04-08T09:47:07;94559.81;;;12.78;47.97
35778;BME280;21899;42.662;23.316;2023-04-08T09:49:32;94547.72;;;12.49;48.92
35778;BME280;21899;42.662;23.316;2023-04-08T09:52:14;94554.97;;;12.52;49.43
35778;BME280;21899;42.662;23.316;2023-04-08T09:57:45;94556.19;;;12.41;50.38
35778;BME280;21899;42.662;23.316;2023-04-08T10:00:16;94545.50;;;12.23;50.88
35778;BME280;21899;42.662;23.316;2023-04-08T10:02:55;94539.44;;;12.12;51.71
35778;BME280;21899;42.662;23.316;2023-04-08T10:05:25;94549.84;;;12.00;51.03
35778;BME280;21899;42.662;23.316;2023-04-08T10:07:52;94556.72;;;12.04;50.91
35778;BME280;21899;42.662;23.316;2023-04-08T10:10:18;94556.72;;;11.97;51.48
35778;BME280;21899;42.662;23.316;2023-04-08T10:12:44;94544.50;;;11.82;51.03
35778;BME280;21899;42.662;23.316;2023-04-08T10:15:35;94551.06;;;11.70;51.89
35778;BME280;21899;42.662;23.316;2023-04-08T10:23:02;94551.81;;;11.60;52.23
35778;BME280;21899;42.662;23.316;2023-04-08T10:25:32;94544.16;;;11.62;52.29
35778;BME280;21899;42.662;23.316;2023-04-08T10:33:09;94543.78;;;11.78;52.20
35778;BME280;21899;42.662;23.316;2023-04-08T10:35:36;94554.09;;;11.62;51.55
35778;BME280;21899;42.662;23.316;2023-04-08T10:38:02;94530.75;;;11.55;51.81
35778;BME280;21899;42.662;23.316;2023-04-08T10:40:27;94538.41;;;11.78;51.86
35778;BME280;21899;42.662;23.316;2023-04-08T10:42:56;94539.88;;;11.97;52.03
35778;BME280;21899;42.662;23.316;2023-04-08T10:45:22;94534.16;;;11.91;53.36
35778;BME280;21899;42.662;23.316;2023-04-08T10:47:48;94517.97;;;12.12;53.44
35778;BME280;21899;42.662;23.316;2023-04-08T10:50:15;94525.59;;;12.24;53.01
35778;BME280;21899;42.662;23.316;2023-04-08T10:55:12;94518.47;;;12.62;51.38
35778;BME280;21899;42.662;23.316;2023-04-08T10:57:37;94520.13;;;12.42;49.55
35778;BME280;21899;42.662;23.316;2023-04-08T11:00:09;94514.78;;;12.35;49.41
35778;BME280;21899;42.662;23.316;2023-04-08T11:02:37;94501.75;;;12.37;49.58
35778;BME280;21899;42.662;23.316;2023-04-08T11:05:02;94499.16;;;12.23;49.48
35778;BME280;21899;42.662;23.316;2023-04-08T11:07:28;94507.31;;;11.98;50.10
35778;BME280;21899;42.662;23.316;2023-04-08T11:09:54;94519.66;;;11.71;50.81
35778;BME280;21899;42.662;23.316;2023-04-08T11:12:20;94505.13;;;11.44;52.06
35778;BME280;21899;42.662;23.316;2023-04-08T11:14:46;94506.63;;;11.52;52.09
35778;BME280;21899;42.662;23.316;2023-04-08T11:17:14;94502.00;;;11.73;52.38
35778;BME280;21899;42.662;23.316;2023-04-08T11:19:40;94503.50;;;11.92;51.95
35778;BME280;21899;42.662;23.316;2023-04-08T11:22:06;94490.38;;;12.08;52.27
35778;BME280;21899;42.662;23.316;2023-04-08T11:24:35;94487.91;;;12.45;52.05
35778;BME280;21899;42.662;23.316;2023-04-08T11:27:03;94487.34;;;12.71;48.49
35778;BME280;21899;42.662;23.316;2023-04-08T11:29:30;94483.94;;;12.64;47.91
35778;BME280;21899;42.662;23.316;2023-04-08T11:31:57;94475.50;;;12.65;47.69
35778;BME280;21899;42.662;23.316;2023-04-08T11:34:23;94476.78;;;12.94;46.90
35778;BME280;21899;42.662;23.316;2023-04-08T11:36:49;94466.72;;;13.09;46.17
35778;BME280;21899;42.662;23.316;2023-04-08T11:39:15;94474.25;;;13.25;46.46
35778;BME280;21899;42.662;23.316;2023-04-08T11:41:41;94468.16;;;13.21;46.31
35778;BME280;21899;42.662;23.316;2023-04-08T11:44:06;94469.38;;;13.53;44.26
35778;BME280;21899;42.662;23.316;2023-04-08T11:46:33;94470.91;;;13.88;42.40
35778;BME280;21899;42.662;23.316;2023-04-08T11:49:03;94470.31;;;13.73;42.95
35778;BME280;21899;42.662;23.316;2023-04-08T11:51:29;94459.22;;;13.31;43.97
35778;BME280;21899;42.662;23.316;2023-04-08T11:53:55;94453.31;;;13.46;43.11
35778;BME280;21899;42.662;23.316;2023-04-08T11:56:22;94448.69;;;13.50;43.31
35778;BME280;21899;42.662;23.316;2023-04-08T11:58:51;94445.56;;;13.85;43.54
35778;BME280;21899;42.662;23.316;2023-04-08T12:01:17;94459.13;;;13.41;43.91
35778;BME280;21899;42.662;23.316;2023-04-08T12:03:53;94449.84;;;13.46;44.97
35778;BME280;21899;42.662;23.316;2023-04-08T12:06:18;94438.59;;;13.91;44.12
35778;BME280;21899;42.662;23.316;2023-04-08T12:08:43;94451.44;;;14.07;42.85
35778;BME280;21899;42.662;23.316;2023-04-08T12:11:09;94437.84;;;14.17;42.80
35778;BME280;21899;42.662;23.316;2023-04-08T12:13:35;94435.75;;;14.32;40.77
35778;BME280;21899;42.662;23.316;2023-04-08T12:16:01;94433.94;;;14.25;41.30
35778;BME280;21899;42.662;23.316;2023-04-08T12:18:26;94430.28;;;14.39;41.46
35778;BME280;21899;42.662;23.316;2023-04-08T12:20:52;94431.34;;;14.45;41.05
35778;BME280;21899;42.662;23.316;2023-04-08T12:23:17;94429.66;;;14.55;42.12
35778;BME280;21899;42.662;23.316;2023-04-08T12:25:43;94416.81;;;14.39;42.24
35778;BME280;21899;42.662;23.316;2023-04-08T12:28:08;94406.72;;;13.56;43.98
35778;BME280;21899;42.662;23.316;2023-04-08T12:30:35;94414.91;;;13.08;44.32
35778;BME280;21899;42.662;23.316;2023-04-08T12:33:01;94406.19;;;12.46;45.55
35778;BME280;21899;42.662;23.316;2023-04-08T12:35:27;94426.63;;;12.33;46.52
35778;BME280;21899;42.662;23.316;2023-04-08T12:37:52;94416.97;;;12.43;47.47
35778;BME280;21899;42.662;23.316;2023-04-08T12:40:18;94419.97;;;12.52;47.28
35778;BME280;21899;42.662;23.316;2023-04-08T12:42:43;94412.88;;;12.28;47.27
35778;BME280;21899;42.662;23.316;2023-04-08T12:45:09;94417.13;;;12.18;47.52
35778;BME280;21899;42.662;23.316;2023-04-08T12:47:34;94417.09;;;12.25;47.09
35778;BME280;21899;42.662;23.316;2023-04-08T12:50:00;94418.94;;;12.35;47.11
35778;BME280;21899;42.662;23.316;2023-04-08T12:52:26;94423.66;;;12.17;47.06
35778;BME280;21899;42.662;23.316;2023-04-08T12:54:51;94420.44;;;11.71;47.97
35778;BME280;21899;42.662;23.316;2023-04-08T12:57:16;94420.84;;;11.66;48.11
35778;BME280;21899;42.662;23.316;2023-04-08T12:59:42;94433.44;;;11.83;48.46
35778;BME280;21899;42.662;23.316;2023-04-08T13:02:07;94430.03;;;11.68;48.84
35778;BME280;21899;42.662;23.316;2023-04-08T13:04:33;94441.06;;;11.85;49.21
35778;BME280;21899;42.662;23.316;2023-04-08T13:06:58;94422.72;;;11.79;50.33
35778;BME280;21899;42.662;23.316;2023-04-08T13:09:25;94430.38;;;11.74;50.16
35778;BME280;21899;42.662;23.316;2023-04-08T13:11:50;94439.91;;;11.89;50.06
35778;BME280;21899;42.662;23.316;2023-04-08T13:14:16;94431.47;;;11.91;50.29
35778;BME280;21899;42.662;23.316;2023-04-08T13:16:41;94435.31;;;11.90;50.65